Time;durP1;ratioP1;P1;durP2;ratioP2;P2;SDS_P1;SDS_P2;PMS_P1;PMS_P2;Temp;Humidity;BMP_temperature;BMP_pressure;BME280_temperature;BME280_humidity;BME280_pressure;Samples;Min_cycle;Max_cycle;Signal;HPM_P1;HPM_P2
2021/07/21 12:17:23;;;;;;;33.10;15.90;;;;;;;;;;486278;51;936163;-43
2021/07/21 12:17:54;;;;;;;26.95;16.33;;;;;;;;;;520556;44;935352;-43
2021/07/21 12:18:25;;;;;;;;;;;;;;;;;;572364;51;20300;-39
2021/07/21 12:29:47;;;;;;;27.85;15.77;;;;;;;;;;456218;46;935762;-40
2021/07/21 12:30:18;;;;;;;;;;;;;;;;;;574054;51;20264;-40
2021/07/21 12:30:56;;;;;;;29.92;15.85;;;;;;;;;;484429;44;935778;-40
2021/07/21 12:31:31;;;;;;;27.90;15.67;;;;;;;;;;502306;44;935812;-39
2021/07/21 12:32:05;;;;;;;28.90;14.80;;;;;;;;;;502273;51;935662;-39
2021/07/21 12:32:36;;;;;;;26.30;14.93;;;;;;;;;;520151;51;935730;-40
2021/07/21 12:33:08;;;;;;;27.40;15.13;;;;;;;;;;502355;51;935624;-49
2021/07/21 12:33:38;;;;;;;;;;;;;;;;;;574402;44;20514;-53
2021/07/21 12:34:10;;;;;;;29.40;14.35;;;;;;;;;;533167;51;935675;-39
2021/07/21 12:34:43;;;;;;;27.55;14.20;;;;;;;;;;502340;44;935813;-45
2021/07/21 20:33:10;;;;;;;52.90;32.70;;;;;;;;;;501063;51;936148;-48
2021/07/21 20:33:41;;;;;;;45.60;30.35;;;;;;;;;;482346;52;936119;-48
2021/07/21 20:34:13;;;;;;;;;;;;;;;;;;571752;52;20285;-47
2021/07/21 20:34:45;;;;;;;51.80;31.90;;;;;;;;;;482101;52;935698;-54
2021/07/21 20:35:17;;;;;;;52.17;33.22;;;;;;;;;;481530;52;935815;-49
2021/07/21 20:35:48;;;;;;;49.85;31.87;;;;;;;;;;535393;44;935372;-46
2021/07/21 20:36:20;;;;;;;53.38;33.15;;;;;;;;;;481925;52;935747;-49
2021/07/21 20:36:50;;;;;;;;;;;;;;;;;;570659;52;20253;-53
2021/07/21 20:37:22;;;;;;;51.22;32.38;;;;;;;;;;511040;52;935706;-51
2021/07/21 20:37:56;;;;;;;53.97;33.45;;;;;;;;;;482167;52;936056;-49
2021/07/21 20:38:27;;;;;;;51.00;33.90;;;;;;;;;;517856;44;935731;-52
2021/07/21 20:38:59;;;;;;;46.63;30.77;;;;;;;;;;489272;52;935655;-50
2021/07/21 20:39:31;;;;;;;53.63;32.28;;;;;;;;;;481521;52;935652;-46
2021/07/21 20:40:04;;;;;;;49.33;33.20;;;;;;;;;;481961;44;935649;-50
2021/07/21 20:40:36;;;;;;;52.62;33.45;;;;;;;;;;481949;52;935604;-51
2021/07/21 20:41:09;;;;;;;48.40;31.48;;;;;;;;;;482184;44;936198;-49
2021/07/21 20:41:40;;;;;;;50.72;32.58;;;;;;;;;;535044;52;935684;-49
2021/07/21 20:42:13;;;;;;;53.00;33.90;;;;;;;;;;481223;52;935751;-48
2021/07/21 20:42:49;;;;;;;50.42;31.98;;;;;;;;;;570465;44;20298;-48
2021/07/21 20:43:20;;;;;;;50.65;33.45;;;;;;;;;;571077;44;20070;-47
2021/07/21 20:43:50;;;;;;;50.22;32.03;;;;;;;;;;534962;52;935648;-49
2021/07/21 20:44:21;;;;;;;49.38;32.63;;;;;;;;;;517178;52;935622;-49
2021/07/21 20:44:53;;;;;;;47.35;30.77;;;;;;;;;;487651;44;935691;-44
2021/07/21 20:45:23;;;;;;;;;;;;;;;;;;571417;52;20248;-45
2021/07/21 20:45:55;;;;;;;49.28;31.23;;;;;;;;;;493947;52;935792;-47
2021/07/21 20:46:26;;;;;;;;;;;;;;;;;;570792;52;20246;-46
2021/07/21 20:46:58;;;;;;;48.63;31.02;;;;;;;;;;491452;52;935711;-44
2021/07/21 20:47:28;;;;;;;;;;;;;;;;;;571729;52;20274;-46
2021/07/21 20:48:01;;;;;;;48.72;31.08;;;;;;;;;;489375;52;935668;-44
2021/07/21 20:48:32;;;;;;;47.03;30.77;;;;;;;;;;500130;52;935609;-46
2021/07/21 20:49:04;;;;;;;51.55;32.70;;;;;;;;;;500524;44;936269;-50
2021/07/21 20:49:35;;;;;;;51.08;31.90;;;;;;;;;;518125;52;935609;-45
2021/07/21 20:50:07;;;;;;;47.50;31.65;;;;;;;;;;482502;52;935786;-44
2021/07/21 20:50:39;;;;;;;54.03;32.42;;;;;;;;;;482347;52;936108;-46
2021/07/21 20:51:10;;;;;;;;;;;;;;;;;;571337;52;20875;-45
2021/07/21 20:51:42;;;;;;;49.28;30.85;;;;;;;;;;491555;52;935677;-50
2021/07/21 20:52:13;;;;;;;;;;;;;;;;;;571661;52;20297;-48
2021/07/21 20:52:45;;;;;;;51.63;30.80;;;;;;;;;;500172;44;935784;-49
2021/07/21 20:53:17;;;;;;;50.38;32.85;;;;;;;;;;553491;52;935658;-46
2021/07/21 20:53:48;;;;;;;49.72;32.03;;;;;;;;;;517951;52;936085;-44
2021/07/21 20:54:20;;;;;;;47.50;32.83;;;;;;;;;;489864;52;936102;-48
2021/07/21 20:54:50;;;;;;;;;;;;;;;;;;571703;52;20250;-49
2021/07/21 20:55:21;;;;;;;49.35;30.50;;;;;;;;;;500203;52;935798;-50
2021/07/21 20:55:53;;;;;;;42.40;28.65;;;;;;;;;;491073;52;936083;-58
2021/07/21 20:56:24;;;;;;;;;;;;;;;;;;571715;52;20729;-54
2021/07/21 20:56:54;;;;;;;50.42;30.42;;;;;;;;;;571715;44;19973;-55
